Time;durP1;ratioP1;P1;durP2;ratioP2;P2;SDS_P1;SDS_P2;PMS_P1;PMS_P2;Temp;Humidity;BMP_temperature;BMP_pressure;BME280_temperature;BME280_humidity;BME280_pressure;Samples;Min_cycle;Max_cycle;Signal;HPM_P1;HPM_P2
2022/05/16 00:00:43;;;;;;;9.43;3.65;;;;;;;15.34;68.06;101165.91;5264351;28;20025;-65
2022/05/16 00:03:14;;;;;;;8.60;3.65;;;;;;;15.33;67.87;101163.38;5266624;28;20044;-65
2022/05/16 00:05:45;;;;;;;12.65;4.47;;;;;;;15.40;70.79;101154.59;5263164;28;21298;-64
2022/05/16 00:08:17;;;;;;;9.35;3.92;;;;;;;15.43;71.62;101159.66;5267087;28;20052;-64
2022/05/16 00:10:48;;;;;;;11.27;4.10;;;;;;;15.27;70.66;101154.03;5267178;28;20044;-64
2022/05/16 00:13:20;;;;;;;8.65;4.07;;;;;;;15.26;71.44;101157.69;5259592;28;20382;-65
2022/05/16 00:15:52;;;;;;;9.27;3.70;;;;;;;15.20;69.27;101152.88;5256505;28;20032;-65
2022/05/16 00:18:23;;;;;;;8.30;4.18;;;;;;;15.16;72.28;101151.47;5255448;28;20024;-65
2022/05/16 00:20:54;;;;;;;11.13;4.32;;;;;;;15.21;71.50;101142.00;5261344;28;20040;-65
2022/05/16 00:23:26;;;;;;;10.40;3.60;;;;;;;15.17;69.51;101134.31;5259811;28;20040;-65
2022/05/16 00:25:57;;;;;;;12.93;4.53;;;;;;;15.16;69.08;101136.19;5256572;28;20036;-64
2022/05/16 00:28:29;;;;;;;11.75;4.00;;;;;;;15.08;72.36;101131.50;5255554;28;20032;-64
2022/05/16 00:31:00;;;;;;;11.38;3.80;;;;;;;15.06;73.50;101138.00;5262758;28;20030;-65
2022/05/16 00:33:32;;;;;;;10.35;4.03;;;;;;;15.09;75.73;101135.91;5268080;28;20039;-64
2022/05/16 00:36:03;;;;;;;10.23;4.60;;;;;;;15.10;75.74;101136.75;5260742;28;20035;-65
2022/05/16 00:38:35;;;;;;;7.47;3.70;;;;;;;14.99;74.70;101129.66;5267028;28;20047;-64
2022/05/16 00:41:06;;;;;;;10.65;4.43;;;;;;;14.99;73.63;101126.13;5265040;28;20106;-64
2022/05/16 00:43:55;;;;;;;12.18;4.10;;;;;;;14.95;72.72;101138.13;5269949;28;20572;-68
2022/05/16 00:46:31;;;;;;;13.38;4.47;;;;;;;14.95;75.20;101138.13;5256077;28;20215;-65
2022/05/16 00:49:07;;;;;;;14.55;4.32;;;;;;;14.91;74.82;101134.88;5261791;28;20047;-65
2022/05/16 00:51:49;;;;;;;8.30;3.65;;;;;;;14.86;74.09;101132.59;5258570;28;20033;-64
2022/05/16 00:54:26;;;;;;;8.60;3.80;;;;;;;14.90;71.40;101134.03;5260921;28;20444;-65
2022/05/16 00:57:05;;;;;;;13.15;5.13;;;;;;;14.88;76.24;101129.75;5256116;28;20056;-65
2022/05/16 00:59:45;;;;;;;8.65;3.70;;;;;;;14.86;70.09;101121.00;5257996;28;20067;-64
2022/05/16 01:05:09;;;;;;;10.90;4.65;;;;;;;14.77;74.91;101121.84;5264367;28;20406;-65
2022/05/16 01:07:43;;;;;;;8.32;3.80;;;;;;;14.75;76.45;101121.13;5262122;28;20024;-64
2022/05/16 01:10:18;;;;;;;13.38;4.47;;;;;;;14.76;76.66;101118.28;5258536;28;20038;-64
2022/05/16 01:12:52;;;;;;;9.55;3.90;;;;;;;14.64;76.05;101116.72;5258017;28;20104;-65
2022/05/16 01:15:23;;;;;;;11.13;4.40;;;;;;;14.70;77.77;101119.69;5256238;28;20043;-65
2022/05/16 01:17:55;;;;;;;11.88;4.72;;;;;;;14.59;74.89;101113.59;5257002;28;20490;-65
2022/05/16 01:21:14;;;;;;;11.98;4.40;;;;;;;14.68;76.47;101127.03;5262328;28;20037;-65
2022/05/16 01:23:55;;;;;;;8.02;4.18;;;;;;;14.62;78.41;101124.06;5212688;28;20163;-64
2022/05/16 01:26:29;;;;;;;10.50;4.25;;;;;;;14.51;74.52;101133.88;5261479;28;20029;-65
2022/05/16 01:29:01;;;;;;;10.75;4.13;;;;;;;14.45;76.01;101134.41;5255716;28;20062;-64
2022/05/16 01:31:33;;;;;;;9.98;4.40;;;;;;;14.46;78.28;101129.94;5259316;28;20029;-64
2022/05/16 01:34:05;;;;;;;8.93;4.60;;;;;;;14.47;78.54;101126.25;5257824;28;20103;-64
2022/05/16 01:36:37;;;;;;;11.55;4.53;;;;;;;14.45;78.63;101112.09;5259772;28;20039;-63
2022/05/16 01:39:09;;;;;;;10.02;4.68;;;;;;;14.29;76.92;101117.97;5260832;28;20074;-64
2022/05/16 01:41:40;;;;;;;9.95;4.43;;;;;;;14.36;78.96;101110.22;5261287;28;20032;-64
2022/05/16 01:44:11;;;;;;;9.57;4.40;;;;;;;14.32;79.21;101115.88;5268823;28;20032;-64
2022/05/16 01:46:42;;;;;;;11.52;4.82;;;;;;;14.29;79.80;101112.63;5266386;28;20024;-64
2022/05/16 01:49:14;;;;;;;12.85;4.25;;;;;;;14.23;74.82;101107.75;5257067;28;20033;-64
2022/05/16 01:51:45;;;;;;;10.18;4.82;;;;;;;14.27;79.69;101110.06;5259256;28;20793;-64
2022/05/16 01:54:17;;;;;;;10.23;4.78;;;;;;;14.14;77.60;101112.13;5267675;28;20124;-64
2022/05/16 01:56:48;;;;;;;10.02;4.63;;;;;;;14.14;78.86;101108.59;5264902;28;20483;-64
2022/05/16 01:59:19;;;;;;;12.30;5.47;;;;;;;14.20;79.42;101102.69;5263149;28;20750;-64
2022/05/16 02:01:50;;;;;;;10.77;4.85;;;;;;;14.24;80.26;101104.09;5259966;28;20029;-64
2022/05/16 02:04:22;;;;;;;8.65;4.32;;;;;;;14.14;78.66;101096.03;5256177;28;20534;-64
2022/05/16 02:06:53;;;;;;;11.88;4.97;;;;;;;14.16;79.68;101090.53;5259399;28;20041;-64
2022/05/16 02:09:24;;;;;;;9.00;4.80;;;;;;;14.19;80.09;101093.78;5256272;28;20373;-64
2022/05/16 02:11:55;;;;;;;10.20;4.22;;;;;;;14.15;76.30;101083.44;5262645;28;20493;-64
2022/05/16 02:14:27;;;;;;;11.68;5.28;;;;;;;14.13;80.26;101091.63;5264805;28;20035;-65
2022/05/16 02:16:58;;;;;;;8.80;5.13;;;;;;;14.21;81.63;101082.91;5271347;28;20467;-64
2022/05/16 02:19:29;;;;;;;9.25;4.82;;;;;;;14.09;80.71;101074.09;5262636;28;20025;-64
2022/05/16 02:24:50;;;;;;;14.45;4.60;;;;;;;14.17;79.36;101071.63;5271294;28;20028;-64
2022/05/16 02:27:22;;;;;;;11.90;4.97;;;;;;;14.05;79.80;101070.84;5269969;28;20021;-64
2022/05/16 02:29:53;;;;;;;10.52;4.82;;;;;;;14.19;78.99;101072.31;5263242;28;20071;-64
2022/05/16 02:32:24;;;;;;;10.27;5.07;;;;;;;14.04;80.18;101073.69;5269438;28;20102;-65
2022/05/16 02:34:55;;;;;;;11.13;4.82;;;;;;;14.09;81.84;101072.28;5269618;28;20550;-64
2022/05/16 02:37:30;;;;;;;9.30;4.10;;;;;;;14.10;77.75;101063.25;5275254;28;20027;-65
2022/05/16 02:40:02;;;;;;;12.20;4.60;;;;;;;14.15;79.46;101067.34;5269695;28;20036;-64
2022/05/16 02:42:34;;;;;;;8.38;4.50;;;;;;;14.16;80.54;101061.84;5263836;28;20024;-65
2022/05/16 02:45:06;;;;;;;12.05;4.85;;;;;;;14.18;80.02;101057.19;5267415;28;20039;-64
2022/05/16 02:47:37;;;;;;;9.02;4.63;;;;;;;14.07;83.14;101057.28;5274484;28;20086;-65
2022/05/16 02:50:09;;;;;;;11.23;4.53;;;;;;;14.10;78.69;101048.97;5267810;28;20029;-64
2022/05/16 02:52:41;;;;;;;11.95;5.25;;;;;;;14.07;83.55;101059.97;5289072;28;20028;-64
2022/05/16 02:55:12;;;;;;;9.07;4.53;;;;;;;14.03;81.38;101047.81;5269839;28;20488;-64
2022/05/16 02:57:44;;;;;;;10.45;4.45;;;;;;;13.98;80.08;101047.34;5277520;28;20024;-64
2022/05/16 03:00:17;;;;;;;8.02;4.53;;;;;;;13.87;80.04;101046.47;5272693;28;20159;-64
2022/05/16 03:02:48;;;;;;;11.33;4.30;;;;;;;13.91;79.27;101039.00;5270889;28;20028;-64
2022/05/16 03:05:20;;;;;;;9.38;5.00;;;;;;;14.01;82.82;101036.38;5269492;28;20040;-64
2022/05/16 03:07:51;;;;;;;10.43;4.82;;;;;;;14.03;82.44;101029.03;5272524;28;20028;-64
2022/05/16 03:10:22;;;;;;;10.20;4.40;;;;;;;13.95;81.56;101031.56;5275354;28;20032;-64
2022/05/16 03:12:54;;;;;;;9.45;4.40;;;;;;;13.96;83.07;101034.09;5269880;28;20028;-64
2022/05/16 03:15:25;;;;;;;10.05;4.78;;;;;;;13.82;80.44;101037.13;5272112;28;20503;-64
2022/05/16 03:17:57;;;;;;;9.35;4.65;;;;;;;13.92;84.34;101038.88;5268596;28;20029;-64
2022/05/16 03:20:29;;;;;;;10.48;4.75;;;;;;;13.79;79.45;101035.56;5270590;28;20449;-64
2022/05/16 03:23:00;;;;;;;7.72;4.65;;;;;;;13.78;79.85;101039.22;5271897;28;20024;-64
2022/05/16 03:25:31;;;;;;;10.07;4.97;;;;;;;13.80;83.96;101031.06;5267874;28;20035;-64
2022/05/16 03:28:03;;;;;;;8.45;4.93;;;;;;;13.83;83.04;101044.22;5265336;28;20391;-65
2022/05/16 03:30:35;;;;;;;10.15;4.72;;;;;;;13.88;83.12;101039.28;5263947;28;20490;-64
2022/05/16 03:33:06;;;;;;;10.88;4.63;;;;;;;13.72;82.05;101045.97;5260670;28;20115;-64
2022/05/16 03:35:37;;;;;;;10.43;4.82;;;;;;;13.85;84.74;101042.25;5264726;28;21073;-65
2022/05/16 03:40:41;;;;;;;10.90;5.10;;;;;;;13.84;85.79;101043.22;5259002;28;20020;-65
2022/05/16 03:41:00;;;;;;;9.60;4.68;;;;;;;13.74;84.16;101043.16;5271194;28;20097;-64
2022/05/16 03:43:34;;;;;;;9.13;4.80;;;;;;;13.81;86.17;101038.97;5265678;28;20493;-64
2022/05/16 03:46:07;;;;;;;10.95;4.60;;;;;;;13.71;82.73;101043.41;5263228;28;20029;-65
2022/05/16 03:48:38;;;;;;;9.07;4.50;;;;;;;13.78;83.36;101033.88;5260643;28;20028;-64
2022/05/16 03:51:12;;;;;;;9.15;4.40;;;;;;;13.70;83.56;101031.84;5267750;28;20066;-65
2022/05/16 03:53:46;;;;;;;11.18;4.82;;;;;;;13.80;84.43;101031.06;5257751;28;20585;-64
2022/05/16 03:56:23;;;;;;;9.75;4.78;;;;;;;13.81;85.35;101032.75;5260929;28;20447;-64
2022/05/16 03:58:56;;;;;;;8.82;4.50;;;;;;;13.78;84.27;101036.53;5262309;28;20592;-65
2022/05/16 04:01:27;;;;;;;9.73;4.57;;;;;;;13.75;85.30;101030.59;5259765;28;20467;-65
2022/05/16 04:03:59;;;;;;;8.38;5.10;;;;;;;13.89;83.12;101030.25;5270910;28;20482;-65
2022/05/16 04:06:34;;;;;;;7.25;4.60;;;;;;;13.88;84.96;101029.41;5253131;28;20405;-65
2022/05/16 04:09:05;;;;;;;7.18;4.47;;;;;;;13.80;85.56;101031.06;5259689;28;20013;-65
2022/05/16 04:11:36;;;;;;;9.68;4.90;;;;;;;13.83;86.87;101030.81;5261124;28;20474;-64
2022/05/16 04:14:08;;;;;;;8.65;5.45;;;;;;;13.85;86.63;101032.34;5269251;28;20638;-65
2022/05/16 04:16:39;;;;;;;12.32;4.95;;;;;;;13.81;86.52;101028.25;5256606;28;20054;-64
2022/05/16 04:19:10;;;;;;;9.82;4.30;;;;;;;13.85;84.22;101039.56;5265022;28;20027;-64
2022/05/16 04:21:41;;;;;;;9.20;4.60;;;;;;;13.85;82.44;101047.59;5260497;28;20474;-64
2022/05/16 04:24:13;;;;;;;11.10;5.35;;;;;;;13.84;86.61;101043.22;5262156;28;20039;-64
2022/05/16 04:26:44;;;;;;;10.75;4.50;;;;;;;13.91;83.95;101044.38;5262194;28;20036;-64
2022/05/16 04:29:15;;;;;;;9.40;4.88;;;;;;;14.09;83.48;101037.41;5259722;28;20085;-64
2022/05/16 04:31:47;;;;;;;11.10;5.22;;;;;;;14.07;84.33;101047.41;5266341;28;20027;-65
2022/05/16 04:34:18;;;;;;;11.82;5.43;;;;;;;13.96;85.30;101050.19;5262374;28;20047;-64
2022/05/16 04:36:49;;;;;;;7.22;4.93;;;;;;;14.09;85.39;101047.28;5266332;28;20502;-64
2022/05/16 04:39:20;;;;;;;9.13;5.68;;;;;;;14.06;85.30;101044.88;5272981;28;20027;-64
2022/05/16 04:44:41;;;;;;;9.95;5.10;;;;;;;14.18;83.33;101050.97;5259886;28;20040;-64
2022/05/16 04:47:13;;;;;;;10.48;5.25;;;;;;;14.10;85.43;101047.13;5259018;28;20041;-64
2022/05/16 04:49:44;;;;;;;7.43;4.47;;;;;;;14.28;82.11;101050.00;5262073;28;20589;-64
2022/05/16 04:52:15;;;;;;;9.15;4.80;;;;;;;14.21;83.37;101042.66;5259289;28;21242;-65
2022/05/16 04:54:48;;;;;;;8.30;4.65;;;;;;;14.37;84.26;101055.56;5266977;28;20033;-64
2022/05/16 04:57:19;;;;;;;11.45;5.15;;;;;;;14.46;80.36;101055.59;5265229;28;20078;-64
2022/05/16 04:59:51;;;;;;;9.43;4.85;;;;;;;14.46;81.59;101060.13;5265097;28;20035;-64
2022/05/16 05:02:22;;;;;;;9.65;5.13;;;;;;;14.67;79.38;101060.06;5269201;28;20486;-64
2022/05/16 05:04:53;;;;;;;6.88;4.20;;;;;;;14.75;79.63;101057.50;5270861;28;20497;-64
2022/05/16 05:07:25;;;;;;;8.45;4.13;;;;;;;14.90;77.89;101049.91;5265091;28;20483;-64
2022/05/16 05:15:38;;;;;;;9.00;4.00;;;;;;;15.31;78.52;101065.88;5264889;28;20044;-64
2022/05/16 05:18:09;;;;;;;8.73;4.43;;;;;;;15.49;75.79;101064.13;5272262;28;20038;-64
2022/05/16 05:20:41;;;;;;;7.30;4.10;;;;;;;15.66;75.74;101065.25;5266036;28;20052;-64
2022/05/16 05:23:12;;;;;;;13.07;4.65;;;;;;;15.88;73.54;101062.25;5269019;28;20024;-64
2022/05/16 05:25:43;;;;;;;10.80;4.10;;;;;;;15.99;73.73;101052.28;5266206;28;20486;-64
2022/05/16 05:28:14;;;;;;;9.02;4.65;;;;;;;16.06;75.10;101058.78;5265631;28;20526;-64
2022/05/16 05:30:46;;;;;;;11.13;5.05;;;;;;;16.10;78.42;101054.78;5269053;28;20032;-64
2022/05/16 05:33:17;;;;;;;9.77;4.70;;;;;;;16.23;74.33;101041.84;5263490;28;20454;-64
2022/05/16 05:35:48;;;;;;;10.95;4.10;;;;;;;16.38;73.58;101047.56;5266948;28;20298;-64
2022/05/16 05:38:20;;;;;;;6.93;3.90;;;;;;;16.60;70.37;101053.53;5270358;28;20021;-64
2022/05/16 05:40:52;;;;;;;8.68;4.00;;;;;;;16.74;70.25;101071.00;5268062;28;20036;-64
2022/05/16 05:43:23;;;;;;;8.57;4.05;;;;;;;16.86;71.00;101064.44;5269434;28;20056;-64
2022/05/16 05:45:54;;;;;;;9.63;3.83;;;;;;;16.94;71.12;101072.63;5271839;28;20400;-64
2022/05/16 05:48:26;;;;;;;9.00;3.92;;;;;;;17.06;69.95;101075.91;5274303;28;20036;-64
2022/05/16 05:50:57;;;;;;;7.60;3.70;;;;;;;17.17;68.42;101077.53;5262068;28;20028;-64
2022/05/16 05:53:28;;;;;;;7.47;3.53;;;;;;;17.19;70.92;101080.94;5264047;28;20116;-65
2022/05/16 05:55:59;;;;;;;8.32;3.65;;;;;;;17.29;69.19;101086.25;5259743;28;20028;-64
2022/05/16 05:58:32;;;;;;;8.27;3.83;;;;;;;17.26;70.54;101084.72;5258158;28;20024;-64
2022/05/16 06:01:06;;;;;;;8.43;3.40;;;;;;;17.38;67.30;101086.16;5251882;28;20090;-65
2022/05/16 06:03:38;;;;;;;12.32;4.63;;;;;;;17.44;68.15;101090.06;5248339;28;20356;-65
2022/05/16 06:06:09;;;;;;;9.75;3.78;;;;;;;17.37;70.25;101094.41;5252240;28;20036;-65
2022/05/16 06:08:40;;;;;;;7.53;3.58;;;;;;;17.48;68.00;101083.38;5269532;28;20364;-65
2022/05/16 06:11:12;;;;;;;9.52;4.28;;;;;;;17.54;67.54;101084.59;5268138;28;20051;-65
2022/05/16 06:13:43;;;;;;;9.63;4.05;;;;;;;17.63;68.00;101097.13;5268753;28;20025;-65
2022/05/16 06:16:14;;;;;;;9.43;3.33;;;;;;;17.71;68.26;101099.03;5266451;28;20103;-65
2022/05/16 06:18:46;;;;;;;6.65;3.50;;;;;;;17.77;66.48;101098.41;5265567;28;20053;-65
2022/05/16 06:21:17;;;;;;;9.13;3.65;;;;;;;17.81;67.45;101108.75;5274556;28;20532;-65
2022/05/16 06:23:48;;;;;;;7.82;3.63;;;;;;;17.95;67.47;101107.34;5274260;28;20524;-65
2022/05/16 06:26:19;;;;;;;7.88;2.85;;;;;;;18.03;65.98;101112.78;5276133;28;20074;-65
2022/05/16 06:28:51;;;;;;;12.15;3.60;;;;;;;18.02;68.30;101110.25;5272961;28;20032;-65
2022/05/16 06:31:23;;;;;;;7.50;3.47;;;;;;;18.20;67.59;101115.59;5274282;28;20495;-66
2022/05/16 06:33:54;;;;;;;9.80;3.38;;;;;;;18.25;66.59;101110.53;5275597;28;20139;-65
2022/05/16 06:36:25;;;;;;;7.10;2.97;;;;;;;18.23;70.31;101107.16;5270347;28;20028;-65
2022/05/16 06:38:57;;;;;;;6.75;3.33;;;;;;;18.26;69.43;101114.09;5273147;28;20086;-65
2022/05/16 06:41:28;;;;;;;6.65;3.05;;;;;;;18.39;67.79;101107.25;5270148;28;20395;-65
2022/05/16 06:44:01;;;;;;;7.38;3.35;;;;;;;18.50;66.53;101121.47;5274926;28;20024;-65
2022/05/16 06:46:32;;;;;;;11.85;3.88;;;;;;;18.46;66.33;101130.91;5271741;28;20063;-65
2022/05/16 06:49:03;;;;;;;7.82;3.40;;;;;;;18.53;67.32;101121.16;5273472;28;20496;-65
2022/05/16 06:51:34;;;;;;;9.40;3.15;;;;;;;18.68;65.40;101110.53;5270636;28;20498;-65
2022/05/16 06:54:06;;;;;;;10.40;3.35;;;;;;;18.77;65.18;101120.38;5275726;28;20052;-65
2022/05/16 06:56:38;;;;;;;9.25;3.70;;;;;;;18.82;65.85;101128.88;5273229;28;20037;-65
2022/05/16 06:59:09;;;;;;;8.02;3.47;;;;;;;18.91;66.63;101125.19;5268210;28;20025;-65
2022/05/16 07:01:41;;;;;;;8.07;3.50;;;;;;;18.95;65.44;101125.69;5264731;28;20756;-65
2022/05/16 07:04:12;;;;;;;7.03;3.40;;;;;;;19.05;66.94;101126.38;5267941;28;20055;-65
2022/05/16 07:06:43;;;;;;;7.28;3.40;;;;;;;19.04;67.29;101130.09;5266365;28;20429;-65
2022/05/16 07:09:14;;;;;;;12.98;3.67;;;;;;;19.15;66.61;101132.47;5268095;28;20054;-65
2022/05/16 07:11:46;;;;;;;7.53;3.00;;;;;;;19.27;68.42;101133.03;5268783;28;20029;-67
2022/05/16 07:14:17;;;;;;;9.55;3.35;;;;;;;19.35;66.78;101135.75;5271527;28;20035;-65
2022/05/16 07:16:49;;;;;;;8.32;3.38;;;;;;;19.54;65.46;101141.81;5261784;28;20032;-65
2022/05/16 07:19:20;;;;;;;12.57;2.92;;;;;;;19.57;68.37;101144.19;5266841;28;20035;-65
2022/05/16 07:21:51;;;;;;;9.20;3.03;;;;;;;19.72;66.74;101141.69;5263728;28;20432;-65
2022/05/16 07:24:24;;;;;;;9.13;3.35;;;;;;;19.95;65.96;101148.09;5263661;28;20348;-65
2022/05/16 07:29:45;;;;;;;6.40;2.78;;;;;;;20.29;65.20;101146.19;5265583;28;20029;-65
2022/05/16 07:32:17;;;;;;;6.25;2.92;;;;;;;20.47;64.81;101141.34;5264778;28;20383;-65
2022/05/16 07:34:48;;;;;;;7.28;3.22;;;;;;;20.68;63.44;101153.50;5263514;28;20470;-65
2022/05/16 07:37:19;;;;;;;10.52;3.08;;;;;;;20.73;63.40;101145.69;5265003;28;20482;-65
2022/05/16 07:39:51;;;;;;;8.05;2.92;;;;;;;20.98;61.31;101138.28;5267069;28;20036;-64
2022/05/16 07:42:22;;;;;;;7.15;3.00;;;;;;;21.16;61.42;101146.13;5264303;28;20032;-65
2022/05/16 07:44:53;;;;;;;7.32;2.92;;;;;;;21.16;62.41;101148.84;5264799;28;20073;-65
2022/05/16 07:47:24;;;;;;;8.60;3.50;;;;;;;21.19;62.96;101148.47;5264279;28;20041;-65
2022/05/16 07:49:59;;;;;;;6.50;3.08;;;;;;;21.32;62.05;101151.44;5265672;28;20040;-65
2022/05/16 07:52:31;;;;;;;8.32;2.65;;;;;;;21.37;60.73;101156.31;5272506;28;20133;-65
2022/05/16 07:55:03;;;;;;;6.32;2.70;;;;;;;21.42;63.15;101155.75;5268742;28;20100;-65
2022/05/16 07:57:35;;;;;;;5.75;2.53;;;;;;;21.56;61.13;101162.34;5269221;28;20441;-65
2022/05/16 08:00:07;;;;;;;6.60;2.83;;;;;;;21.59;61.47;101159.22;5270768;28;20479;-65
2022/05/16 08:02:39;;;;;;;9.68;3.03;;;;;;;21.54;60.14;101157.91;5265594;28;20063;-65
2022/05/16 08:05:13;;;;;;;8.27;3.00;;;;;;;21.61;61.06;101162.59;5270227;28;20476;-65
2022/05/16 08:10:36;;;;;;;5.82;2.83;;;;;;;21.53;61.44;101160.81;5272555;28;20024;-65
2022/05/16 08:13:11;;;;;;;6.70;2.67;;;;;;;21.47;62.44;101161.53;5269149;28;20037;-65
2022/05/16 08:15:42;;;;;;;7.45;2.67;;;;;;;21.61;62.56;101160.75;5267411;28;20335;-65
2022/05/16 08:18:14;;;;;;;7.40;2.70;;;;;;;21.67;61.53;101159.16;5262578;28;20731;-65
2022/05/16 08:20:47;;;;;;;6.43;2.65;;;;;;;21.73;61.08;101169.31;5258250;28;20139;-65
2022/05/16 08:23:22;;;;;;;7.20;2.97;;;;;;;21.69;61.45;101173.44;5270522;28;20418;-65
2022/05/16 08:25:55;;;;;;;7.13;2.50;;;;;;;21.97;61.45;101175.53;5271948;28;20025;-64
2022/05/16 08:28:27;;;;;;;7.93;2.35;;;;;;;22.00;59.87;101177.91;5268308;28;20036;-66
2022/05/16 08:30:58;;;;;;;11.50;2.78;;;;;;;22.16;60.27;101176.88;5263323;28;20035;-65
2022/05/16 08:33:30;;;;;;;6.93;2.47;;;;;;;22.40;60.06;101167.63;5265598;28;20043;-65
2022/05/16 08:42:05;;;;;;;6.53;2.38;;;;;;;22.63;58.57;101170.28;5260137;28;20032;-65
2022/05/16 08:44:39;;;;;;;6.70;2.58;;;;;;;22.97;58.11;101177.81;5267729;28;20029;-65
2022/05/16 08:47:16;;;;;;;7.63;2.10;;;;;;;22.98;58.39;101167.78;5272811;28;20028;-66
2022/05/16 08:49:53;;;;;;;6.93;2.50;;;;;;;23.10;58.85;101171.72;5272854;28;20478;-65
2022/05/16 08:52:27;;;;;;;8.20;2.95;;;;;;;23.22;56.56;101170.19;5268191;28;20032;-66
2022/05/16 08:55:16;;;;;;;6.50;2.50;;;;;;;23.35;55.01;101172.19;5266604;28;20308;-65
2022/05/16 08:57:55;;;;;;;8.02;2.75;;;;;;;23.51;56.57;101167.53;5269738;28;20024;-65
2022/05/16 09:00:43;;;;;;;6.43;2.33;;;;;;;23.50;55.94;101172.13;5270801;28;20062;-65
2022/05/16 09:03:21;;;;;;;7.95;2.47;;;;;;;23.68;55.64;101175.25;5267912;28;20043;-65
2022/05/16 09:06:02;;;;;;;4.68;2.17;;;;;;;23.80;54.81;101169.31;5266574;28;20043;-65
2022/05/16 09:08:47;;;;;;;5.28;2.33;;;;;;;23.82;54.75;101168.06;5262222;28;20043;-65
2022/05/16 09:11:24;;;;;;;7.43;2.47;;;;;;;23.99;54.46;101170.47;5267889;28;20024;-66
2022/05/16 09:14:34;;;;;;;8.40;2.28;;;;;;;24.09;55.58;101181.06;5269196;28;20360;-65
2022/05/16 09:17:44;;;;;;;7.68;2.50;;;;;;;24.10;55.15;101182.72;5268442;28;20899;-65
2022/05/16 09:20:42;;;;;;;5.75;2.30;;;;;;;24.19;54.30;101185.09;5268610;28;20152;-65
2022/05/16 09:23:32;;;;;;;6.60;2.13;;;;;;;24.35;54.17;101183.09;5270520;28;20036;-66
2022/05/16 09:26:15;;;;;;;10.00;2.58;;;;;;;24.46;53.28;101180.66;5267746;28;20035;-66
2022/05/16 09:28:54;;;;;;;7.70;2.53;;;;;;;24.57;53.67;101173.00;5273886;28;20451;-66
2022/05/16 09:31:43;;;;;;;6.00;2.40;;;;;;;24.73;52.82;101174.53;5273532;28;20028;-66
2022/05/16 09:34:15;;;;;;;6.00;2.35;;;;;;;24.73;52.15;101178.09;5270301;28;20036;-65
2022/05/16 09:36:49;;;;;;;6.57;2.30;;;;;;;24.76;52.92;101194.06;5270179;28;20039;-66
2022/05/16 09:39:24;;;;;;;8.95;2.90;;;;;;;24.80;51.74;101187.16;5269183;28;20359;-66
2022/05/16 09:41:59;;;;;;;8.65;2.60;;;;;;;24.69;52.76;101185.00;5268758;28;20040;-66
2022/05/16 09:44:42;;;;;;;8.05;2.13;;;;;;;24.77;52.00;101186.72;5270672;28;20028;-66
2022/05/16 09:47:28;;;;;;;5.72;2.60;;;;;;;24.94;52.45;101193.50;5271939;28;20124;-66
2022/05/16 09:50:02;;;;;;;6.72;2.38;;;;;;;24.93;51.86;101207.34;5272682;28;20039;-66
2022/05/16 09:52:37;;;;;;;5.70;2.40;;;;;;;25.20;50.53;101205.59;5271737;28;20032;-66
2022/05/16 09:55:12;;;;;;;7.18;2.50;;;;;;;25.20;51.27;101206.44;5267186;28;20078;-66
2022/05/16 09:58:02;;;;;;;7.75;3.08;;;;;;;25.60;51.00;101209.28;5269556;28;20334;-66
2022/05/16 10:00:42;;;;;;;5.85;2.60;;;;;;;25.75;51.43;101219.16;5267376;28;20124;-67
2022/05/16 10:03:24;;;;;;;6.28;2.85;;;;;;;26.00;52.62;101238.56;5264565;28;20032;-66
2022/05/16 10:05:57;;;;;;;8.18;3.25;;;;;;;26.21;50.53;101235.63;5268699;28;20474;-66
2022/05/16 10:08:38;;;;;;;9.15;3.20;;;;;;;26.24;49.88;101226.13;5265982;28;20074;-66
2022/05/16 10:11:17;;;;;;;6.75;2.88;;;;;;;26.35;49.78;101232.88;5264902;28;20035;-66
2022/05/16 10:13:50;;;;;;;10.77;3.45;;;;;;;26.26;49.45;101234.13;5262545;28;20042;-66
2022/05/16 10:16:25;;;;;;;9.98;3.13;;;;;;;26.02;49.81;101245.50;5268515;28;20060;-66
2022/05/16 10:19:03;;;;;;;8.63;3.22;;;;;;;25.85;49.78;101243.34;5270139;28;20067;-66
2022/05/16 10:21:39;;;;;;;12.55;3.10;;;;;;;25.41;52.04;101254.63;5264798;28;20509;-66
2022/05/16 10:24:11;;;;;;;12.85;3.20;;;;;;;25.02;53.13;101274.41;5272218;28;20036;-66
2022/05/16 10:26:46;;;;;;;11.32;3.30;;;;;;;24.69;57.27;101285.97;5268097;28;20179;-66
2022/05/16 10:29:26;;;;;;;8.85;3.58;;;;;;;23.80;61.03;101291.94;5267779;28;20486;-68
2022/05/16 10:35:03;;;;;;;6.53;3.13;;;;;;;22.72;66.78;101305.13;5268474;28;20048;-66
2022/05/16 10:37:44;;;;;;;7.35;3.53;;;;;;;22.62;69.21;101310.84;5265955;28;20028;-65
2022/05/16 10:40:32;;;;;;;9.43;3.70;;;;;;;22.62;69.92;101315.47;5270668;28;20113;-66
2022/05/16 10:43:42;;;;;;;8.07;3.15;;;;;;;22.75;69.25;101318.38;5266463;28;20021;-66
2022/05/16 10:46:18;;;;;;;10.55;4.10;;;;;;;22.98;68.76;101321.03;5269496;28;20039;-65
2022/05/16 10:49:00;;;;;;;11.35;4.03;;;;;;;23.29;69.46;101318.09;5271021;28;20119;-65
2022/05/16 10:51:55;;;;;;;13.73;3.67;;;;;;;23.63;66.36;101322.09;5268788;28;20788;-65
2022/05/16 10:54:31;;;;;;;14.13;3.72;;;;;;;23.68;65.65;101325.09;5267990;28;20173;-65
2022/05/16 10:57:13;;;;;;;7.78;3.45;;;;;;;23.73;65.51;101329.13;5269745;28;20028;-66
2022/05/16 10:59:47;;;;;;;6.50;3.30;;;;;;;24.04;64.58;101320.66;5273470;28;20071;-66
2022/05/16 11:02:56;;;;;;;6.65;3.50;;;;;;;24.20;64.84;101336.78;5270739;28;20089;-66
2022/05/16 11:05:55;;;;;;;10.00;4.47;;;;;;;24.33;62.63;101336.03;5272219;28;20036;-66
2022/05/16 11:09:00;;;;;;;10.25;3.63;;;;;;;24.32;61.34;101337.09;5274104;28;20068;-66
2022/05/16 11:11:41;;;;;;;9.82;3.90;;;;;;;24.11;63.17;101339.81;5266804;28;20458;-66
2022/05/16 11:14:40;;;;;;;6.68;3.97;;;;;;;24.16;60.46;101337.34;5274216;28;20071;-66
2022/05/16 11:17:24;;;;;;;10.43;4.35;;;;;;;23.77;59.56;101342.16;5272410;28;20035;-66
2022/05/16 11:20:01;;;;;;;;;;;;;;;23.88;59.64;101346.28;5273586;28;20029;-66
2022/05/16 11:22:41;;;;;;;12.15;5.07;;;;;;;23.46;61.08;101337.81;5265651;28;20339;-66
2022/05/16 11:25:27;;;;;;;8.10;4.53;;;;;;;23.54;61.41;101338.75;5272619;28;20033;-65
2022/05/16 11:28:24;;;;;;;10.95;5.53;;;;;;;23.55;62.21;101345.88;5270895;28;20089;-66
2022/05/16 11:31:14;;;;;;;10.15;4.47;;;;;;;23.52;63.18;101346.25;5268134;28;20028;-65
2022/05/16 11:33:53;;;;;;;10.75;6.38;;;;;;;23.04;66.84;101350.22;5272634;28;20025;-66
2022/05/16 11:36:44;;;;;;;11.43;6.15;;;;;;;22.85;68.54;101346.16;5269104;28;20115;-66
2022/05/16 11:39:33;;;;;;;10.77;5.50;;;;;;;22.90;67.12;101353.78;5273585;28;20028;-66
2022/05/16 11:42:21;;;;;;;11.75;5.70;;;;;;;23.04;66.83;101352.94;5268783;28;20031;-65
2022/05/16 11:45:19;;;;;;;13.20;5.80;;;;;;;23.23;65.34;101350.72;5274813;28;20634;-66
2022/05/16 11:48:31;;;;;;;9.90;5.05;;;;;;;23.19;63.63;101365.75;5270696;28;20081;-65
2022/05/16 11:51:23;;;;;;;7.97;5.07;;;;;;;23.04;64.82;101363.00;5274619;28;20155;-66
2022/05/16 11:54:00;;;;;;;9.48;5.68;;;;;;;22.79;63.45;101362.38;5266871;28;20028;-64
2022/05/16 12:02:51;;;;;;;9.90;6.38;;;;;;;22.67;67.08;101375.59;5268595;28;20039;-66
2022/05/16 12:05:22;;;;;;;12.48;7.47;;;;;;;22.37;69.19;101380.94;5276499;28;20097;-66
2022/05/16 12:08:12;;;;;;;13.60;9.03;;;;;;;22.20;70.76;101382.06;5277212;28;20044;-66
2022/05/16 12:11:03;;;;;;;14.30;10.18;;;;;;;22.02;71.13;101388.63;5274753;28;20309;-66
2022/05/16 12:13:54;;;;;;;14.70;10.20;;;;;;;22.14;71.39;101394.50;5273507;28;20490;-67
2022/05/16 12:16:28;;;;;;;13.55;10.18;;;;;;;22.18;71.44;101397.72;5276880;28;20036;-66
2022/05/16 12:19:34;;;;;;;17.40;10.05;;;;;;;22.35;71.23;101395.75;5273782;28;20044;-67
2022/05/16 12:22:09;;;;;;;13.85;9.57;;;;;;;22.39;72.98;101411.50;5259745;28;20127;-67
2022/05/16 12:24:52;;;;;;;16.23;10.80;;;;;;;22.19;71.65;101419.28;5276645;28;20067;-67
2022/05/16 12:27:29;;;;;;;16.10;11.40;;;;;;;22.11;72.05;101424.75;5271326;28;20115;-65
2022/05/16 12:30:10;;;;;;;13.90;11.15;;;;;;;21.95;72.79;101422.13;5276590;28;20279;-66
2022/05/16 12:32:42;;;;;;;15.48;10.77;;;;;;;21.76;73.11;101435.13;5273577;28;20094;-67
2022/05/16 12:35:32;;;;;;;14.90;10.25;;;;;;;21.60;73.75;101440.63;5275796;28;20100;-67